Portada
METAR-TAF:

METAR-TAF

Aeroports :

Beckley, Virgínia de l'Oest, Estats Units d'Amèrica

latitud: 37-47-42N, longitud: 081-07-29W, altitud: 763 m

Observació

L'informe es va fer fa 1 hora i 12 minuts, a les 23:51 UTC
Vent 8 kt del Nord-Oest
Temperatura 13°C
Humitat 26%
Pressió 1015 hPa
Visibilitat: 16.1 km
Cel clar

METAR: KBKW 032351Z AUTO 31008KT 10SM CLR 13/M06 A2997 RMK AO2 SLP150 T01331056 10167 20133 53001

Hora: 21:03 (01:03 UTC)

Pronòstic

L'informe es va fer fa 1 hora i 33 minuts, a les 23:30 UTC
Pronòstic vàlid del 04 a les 00 UTC al 04 a les 24 UTC
Vent 4 kt del Nord-Oest
Visibilitat: 10 km
Cel clar
A partir de les 04 a les 0300 UTC
Vent 6 kt del Nord-Oest
Visibilitat: 10 km
Cel clar
A partir de les 04 a les 1600 UTC
Vent 5 kt del Nord/Nord-Oest amb ràfegues de 18 kt
Visibilitat: 10 km
Cel clar

TAF: KBKW 032330Z 0400/0424 32004KT P6SM SKC FM040300 31006KT P6SM SKC FM041600 34005G18KT P6SM SKC

Observacions i pronòstics meteorològics de més de 4000 aeroports (METAR i TAF).

Les estacions disponibles són els punts grocs i vermells al mapa.

Posi el ratolí al punt desitjat per veure el nom de l'estació.

Feu clic per veure les observacions i els pronòstics meteorològics.

Per canviar el mapa: feu clic els botons verds amb una creu de color negre per apropar; al botó verd amb un guió per allunyar la imatge; o en les fletxes verdes per a mapes adjacents.


METAR-TAF: